createdAt,value
2019-01-11T00:01:14.629Z,0.00
2019-01-11T00:03:45.772Z,-0.10
2019-01-11T00:06:16.873Z,-0.10
2019-01-11T00:08:47.869Z,-0.10
2019-01-11T00:11:19.245Z,-0.20
2019-01-11T00:13:50.249Z,-0.20
2019-01-11T00:16:21.345Z,-0.20
2019-01-11T00:18:52.346Z,-0.20
2019-01-11T00:21:23.529Z,-0.20
2019-01-11T00:23:54.512Z,-0.30
2019-01-11T00:26:25.614Z,-0.30
2019-01-11T00:28:56.609Z,-0.30
2019-01-11T00:31:27.805Z,-0.30
2019-01-11T00:33:58.886Z,-0.30
2019-01-11T00:36:29.981Z,-0.30
2019-01-11T00:39:00.918Z,-0.20
2019-01-11T00:41:33.501Z,-0.20
2019-01-11T00:44:04.746Z,-0.30
2019-01-11T00:46:35.673Z,-0.20
2019-01-11T00:49:13.318Z,-0.30
2019-01-11T00:51:39.737Z,-0.30
2019-01-11T00:54:10.901Z,-0.30
2019-01-11T00:56:44.572Z,-0.20
2019-01-11T00:59:15.641Z,-0.20
2019-01-11T01:01:46.755Z,-0.30
2019-01-11T01:04:17.737Z,-0.30
2019-01-11T01:06:49.294Z,-0.30
2019-01-11T01:09:20.431Z,-0.30
2019-01-11T01:11:51.525Z,-0.30
2019-01-11T01:14:22.617Z,-0.30
2019-01-11T01:16:53.805Z,-0.30
2019-01-11T01:19:24.802Z,-0.30
2019-01-11T01:21:55.970Z,-0.40
2019-01-11T05:10:43.999Z,-0.20
2019-01-11T05:13:32.599Z,-0.20
2019-01-11T05:16:03.682Z,-0.20
2019-01-11T05:18:34.694Z,-0.20
2019-01-11T05:21:05.563Z,-0.20
2019-01-11T05:23:36.658Z,-0.20
2019-01-11T05:26:07.675Z,-0.20
2019-01-11T05:28:38.651Z,-0.20
2019-01-11T05:31:09.642Z,-0.30
2019-01-11T05:33:40.629Z,-0.30
2019-01-11T05:36:11.508Z,-0.30
2019-01-11T05:38:42.614Z,-0.40
2019-01-11T05:41:13.446Z,-0.40
2019-01-11T05:43:45.138Z,-0.40
2019-01-11T05:46:16.142Z,-0.50
2019-01-11T05:48:47.187Z,-0.40
2019-01-11T05:51:18.250Z,-0.40
2019-01-11T05:53:49.263Z,-0.40
2019-01-11T05:56:20.825Z,-0.30
2019-01-11T05:59:08.189Z,-0.30
2019-01-11T06:01:39.281Z,-0.50
2019-01-11T06:04:28.046Z,-0.60
2019-01-11T06:07:20.874Z,-0.70
2019-01-11T06:09:51.774Z,-0.60
2019-01-11T06:12:23.195Z,-0.60
2019-01-11T06:14:54.254Z,-0.50
2019-01-11T06:17:25.263Z,-0.60
2019-01-11T06:19:56.714Z,-0.50
2019-01-11T06:22:27.753Z,-0.60
2019-01-11T06:24:58.774Z,-0.60
2019-01-11T06:27:29.742Z,-0.60
2019-01-11T06:30:00.797Z,-0.60
2019-01-11T06:32:31.714Z,-0.60
2019-01-11T06:35:02.823Z,-0.50
2019-01-11T06:37:33.790Z,-0.40
2019-01-11T06:40:05.473Z,-0.40
2019-01-11T06:42:36.489Z,-0.40
2019-01-11T06:45:08.913Z,-0.40
2019-01-11T06:47:40.006Z,-0.40
2019-01-11T06:50:12.941Z,-0.40
2019-01-11T06:52:43.932Z,-0.40
2019-01-11T06:55:15.014Z,-0.40
2019-01-11T06:57:46.128Z,-0.40
2019-01-11T07:00:17.782Z,-0.50
2019-01-11T07:02:48.813Z,-0.50
2019-01-11T07:05:19.858Z,-0.40
2019-01-11T07:07:50.690Z,-0.50
2019-01-11T07:10:21.886Z,-0.50
2019-01-11T07:12:52.800Z,-0.50
2019-01-11T07:15:23.821Z,-0.60
2019-01-11T07:17:55.254Z,-0.60
2019-01-11T07:20:26.150Z,-0.50
2019-01-11T07:22:57.138Z,-0.50
2019-01-11T07:25:28.197Z,-0.40
2019-01-11T07:28:01.787Z,-0.40
2019-01-11T07:30:54.740Z,-0.40
2019-01-11T07:33:25.677Z,-0.40
2019-01-11T07:36:07.974Z,-0.40
2019-01-11T07:38:41.070Z,-0.40
2019-01-11T07:41:12.131Z,-0.30
2019-01-11T07:43:42.837Z,-0.30
2019-01-11T07:46:14.113Z,-0.40
2019-01-11T07:48:45.238Z,-0.50
2019-01-11T07:51:16.321Z,-0.50
2019-01-11T07:53:47.235Z,-0.50
2019-01-11T07:56:18.210Z,-0.40
2019-01-11T07:58:49.298Z,-0.40
2019-01-11T08:01:20.175Z,-0.30
2019-01-11T08:03:51.178Z,-0.30
2019-01-11T08:06:22.122Z,-0.20
2019-01-11T08:08:53.804Z,-0.10
2019-01-11T08:11:25.135Z,-0.10
2019-01-11T08:13:56.022Z,-0.10
2019-01-11T08:16:26.926Z,-0.10
2019-01-11T08:18:58.040Z,0.00
2019-01-11T08:21:29.026Z,0.00
2019-01-11T08:23:59.907Z,0.10
2019-01-11T08:26:30.698Z,0.10
2019-01-11T08:29:01.673Z,0.10
2019-01-11T08:31:34.861Z,0.10
2019-01-11T08:34:05.407Z,0.10
2019-01-11T08:36:36.498Z,0.10
2019-01-11T08:39:09.436Z,0.10
2019-01-11T08:41:41.423Z,0.20
2019-01-11T08:44:12.113Z,0.20
2019-01-11T08:46:43.323Z,0.20
2019-01-11T08:49:15.330Z,0.20
2019-01-11T08:51:46.289Z,0.20
2019-01-11T08:54:17.107Z,0.30
2019-01-11T08:56:48.103Z,0.30
2019-01-11T08:59:19.093Z,0.40
2019-01-11T09:01:50.071Z,0.30
2019-01-11T09:04:20.957Z,0.40
2019-01-11T09:06:51.845Z,0.40
2019-01-11T09:09:22.734Z,0.40
2019-01-11T09:11:53.723Z,0.40
2019-01-11T09:14:42.481Z,0.40
2019-01-11T09:17:13.514Z,0.40
2019-01-11T09:19:44.626Z,0.50
2019-01-11T09:22:16.740Z,0.50
2019-01-11T09:24:47.626Z,0.60
2019-01-11T09:27:18.613Z,0.60
2019-01-11T09:29:49.802Z,0.60
2019-01-11T09:32:20.794Z,0.60
2019-01-11T09:34:51.799Z,0.60
2019-01-11T09:37:22.776Z,0.50
2019-01-11T09:39:53.866Z,0.50
2019-01-11T09:42:24.879Z,0.60
2019-01-11T09:44:55.862Z,0.60
2019-01-11T09:47:26.949Z,0.70
2019-01-11T09:49:57.933Z,0.70
2019-01-11T09:52:28.823Z,0.80
2019-01-11T09:54:59.917Z,0.90
2019-01-11T09:57:30.787Z,0.90
2019-01-11T10:00:01.810Z,1.00
2019-01-11T10:02:36.915Z,0.90
2019-01-11T10:05:09.611Z,1.00
2019-01-11T10:07:40.595Z,1.10
2019-01-11T10:10:13.834Z,1.00
2019-01-11T10:12:44.826Z,1.00
2019-01-11T10:15:16.227Z,1.00
2019-01-11T10:17:49.096Z,1.00
2019-01-11T10:20:20.254Z,1.00
2019-01-11T10:22:51.145Z,1.00
2019-01-11T10:25:22.234Z,1.00
2019-01-11T10:27:53.226Z,1.10
2019-01-11T10:30:24.225Z,1.20
2019-01-11T10:32:54.988Z,1.30
2019-01-11T10:35:26.086Z,1.40
2019-01-11T10:37:57.081Z,1.40
2019-01-11T10:40:28.898Z,1.30
2019-01-11T10:42:59.873Z,1.30
2019-01-11T10:45:30.982Z,1.30
2019-01-11T10:48:01.958Z,1.30
2019-01-11T10:50:32.945Z,1.30
2019-01-11T10:53:04.042Z,1.30
2019-01-11T10:55:35.046Z,1.40
2019-01-11T10:58:06.337Z,1.50
2019-01-11T11:00:37.431Z,1.60
2019-01-11T11:03:08.615Z,1.60
2019-01-11T11:05:39.709Z,1.50
2019-01-11T11:08:11.393Z,1.50
2019-01-11T11:10:42.712Z,1.60
2019-01-11T11:13:13.593Z,1.70
2019-01-11T11:15:46.042Z,1.70
2019-01-11T11:18:17.305Z,1.60
2019-01-11T11:20:48.224Z,1.70
2019-01-11T11:23:19.291Z,1.80
2019-01-11T11:25:50.393Z,1.70
2019-01-11T11:28:21.281Z,1.60
2019-01-11T11:30:52.279Z,1.70
2019-01-11T11:33:23.421Z,1.70
2019-01-11T11:35:54.355Z,1.60
2019-01-11T11:38:25.419Z,1.70
2019-01-11T11:40:56.334Z,1.70
2019-01-11T11:43:27.300Z,1.70
2019-01-11T11:45:58.217Z,1.80
2019-01-11T11:48:30.649Z,1.70
2019-01-11T11:51:01.521Z,1.70
2019-01-11T11:53:32.693Z,1.60
2019-01-11T11:56:03.955Z,1.70
2019-01-11T11:58:35.106Z,1.70
2019-01-11T12:01:07.507Z,1.60
2019-01-11T12:03:38.634Z,1.60
2019-01-11T12:06:09.727Z,1.60
2019-01-11T12:08:40.801Z,1.70
2019-01-11T12:11:11.790Z,1.60
2019-01-11T12:13:42.887Z,1.60
2019-01-11T12:16:13.985Z,1.70
2019-01-11T12:18:44.949Z,1.60
2019-01-11T12:21:16.069Z,1.60
2019-01-11T12:23:47.150Z,1.70
2019-01-11T12:26:18.259Z,1.80
2019-01-11T12:28:49.130Z,1.70
2019-01-11T12:31:20.122Z,1.70
2019-01-11T12:33:51.241Z,1.70
2019-01-11T12:36:22.313Z,1.60
2019-01-11T12:38:53.187Z,1.60
2019-01-11T12:41:24.081Z,1.70
2019-01-11T12:43:55.198Z,1.60
2019-01-11T12:46:26.174Z,1.60
2019-01-11T12:48:57.183Z,1.50
2019-01-11T12:51:28.154Z,1.50
2019-01-11T12:53:59.030Z,1.70
2019-01-11T12:56:30.022Z,1.60
2019-01-11T12:59:01.298Z,1.50
2019-01-11T13:01:32.318Z,1.60
2019-01-11T13:04:03.293Z,1.60
2019-01-11T13:06:34.194Z,1.60
2019-01-11T13:09:07.683Z,1.70
2019-01-11T13:11:38.533Z,1.70
2019-01-11T13:14:10.653Z,1.70
2019-01-11T13:16:41.734Z,1.60
2019-01-11T13:19:12.609Z,1.60
2019-01-11T13:21:43.514Z,1.60
2019-01-11T13:24:14.494Z,1.70
2019-01-11T13:26:45.481Z,1.70
2019-01-11T13:29:16.466Z,1.60
2019-01-11T13:31:47.574Z,1.70
2019-01-11T13:34:18.671Z,1.70
2019-01-11T13:36:53.891Z,1.70
2019-01-11T13:39:22.182Z,1.70
2019-01-11T13:41:53.291Z,1.70
2019-01-11T13:44:24.485Z,1.70
2019-01-11T13:46:55.457Z,1.80
2019-01-11T13:49:27.538Z,1.80
2019-01-11T13:51:58.458Z,1.80
2019-01-11T13:54:29.443Z,1.80
2019-01-11T13:57:00.546Z,1.80
2019-01-11T13:59:31.629Z,1.80
2019-01-11T14:02:02.617Z,1.70
2019-01-11T14:04:33.494Z,1.60
2019-01-11T14:07:04.690Z,1.50
2019-01-11T14:09:35.797Z,1.60
2019-01-11T14:12:06.895Z,1.60
2019-01-11T14:14:37.663Z,1.60
2019-01-11T14:17:08.918Z,1.70
2019-01-11T14:19:41.058Z,1.70
2019-01-11T14:22:13.795Z,1.70
2019-01-11T14:24:45.090Z,1.60
2019-01-11T14:27:16.112Z,1.60
2019-01-11T14:29:47.092Z,1.60
2019-01-11T14:32:18.077Z,1.60
2019-01-11T14:34:48.970Z,1.60
2019-01-11T14:37:20.070Z,1.60
2019-01-11T14:39:51.437Z,1.70
2019-01-11T14:42:22.251Z,1.70
2019-01-11T14:44:53.124Z,1.60
2019-01-11T14:47:24.019Z,1.50
2019-01-11T14:49:55.623Z,1.60
2019-01-11T14:52:26.614Z,1.50
2019-01-11T14:54:57.481Z,1.50
2019-01-11T14:57:28.490Z,1.50
2019-01-11T14:59:59.485Z,1.50
2019-01-11T15:02:30.480Z,1.50
2019-01-11T15:05:01.529Z,1.50
2019-01-11T15:07:32.546Z,1.50
2019-01-11T15:10:03.438Z,1.50
2019-01-11T15:12:34.449Z,1.50
2019-01-11T15:15:05.924Z,1.40
2019-01-11T15:17:36.821Z,1.50
2019-01-11T15:20:09.934Z,1.50
2019-01-11T15:22:40.754Z,1.40
2019-01-11T15:25:12.321Z,1.40
2019-01-11T15:27:43.229Z,1.40
2019-01-11T15:30:20.946Z,1.30
2019-01-11T15:32:52.034Z,1.30
2019-01-11T15:35:23.055Z,1.20
2019-01-11T15:37:54.310Z,1.10
2019-01-11T15:40:36.458Z,1.10
2019-01-11T15:43:05.366Z,1.10
2019-01-11T15:45:36.318Z,1.20
2019-01-11T15:48:07.173Z,1.20
2019-01-11T15:50:55.941Z,1.10
2019-01-11T15:53:29.862Z,1.10
2019-01-11T15:56:02.009Z,1.00
2019-01-11T15:58:33.013Z,1.00
2019-01-11T16:01:04.008Z,1.10
2019-01-11T16:03:35.023Z,1.00
2019-01-11T16:06:41.008Z,1.00
2019-01-11T16:10:03.914Z,0.90
2019-01-11T16:13:10.386Z,0.90
2019-01-11T16:16:18.389Z,1.00
2019-01-11T16:18:49.686Z,1.00
2019-01-11T16:21:20.575Z,0.90
2019-01-11T16:23:51.814Z,0.90
2019-01-11T16:26:22.767Z,0.80
2019-01-11T16:28:53.850Z,0.80
2019-01-11T16:31:24.738Z,0.90
2019-01-11T16:33:55.794Z,0.80
2019-01-11T16:36:26.825Z,0.70
2019-01-11T16:38:57.985Z,0.80
2019-01-11T16:41:29.012Z,0.80
2019-01-11T16:43:59.890Z,0.70
2019-01-11T16:46:30.985Z,0.70
2019-01-11T16:49:03.845Z,0.70
2019-01-11T16:51:35.560Z,0.70
2019-01-11T16:54:06.465Z,0.80
2019-01-11T16:56:37.506Z,0.80
2019-01-11T16:59:08.493Z,0.80
2019-01-11T17:01:39.380Z,0.80
2019-01-11T17:04:10.219Z,0.70
2019-01-11T17:06:41.187Z,0.70
2019-01-11T17:09:23.426Z,0.60
2019-01-11T17:12:03.346Z,0.60
2019-01-11T17:14:34.374Z,0.60
2019-01-11T17:17:05.506Z,0.60
2019-01-11T17:19:36.674Z,0.70
2019-01-11T17:22:31.272Z,0.60
2019-01-11T17:25:01.555Z,0.60
2019-01-11T17:27:32.534Z,0.70
2019-01-11T17:30:11.107Z,0.60
2019-01-11T17:32:42.236Z,0.70
2019-01-11T17:35:13.402Z,0.60
2019-01-11T17:37:44.386Z,0.80
2019-01-11T17:40:16.101Z,0.70
2019-01-11T17:42:46.990Z,0.70
2019-01-11T17:45:18.077Z,0.70
2019-01-11T17:47:49.062Z,0.80
2019-01-11T17:50:20.366Z,0.80
2019-01-11T17:52:51.458Z,0.80
2019-01-11T17:55:22.454Z,0.80
2019-01-11T17:57:53.417Z,0.80
2019-01-11T18:00:24.618Z,0.80
2019-01-11T18:02:55.798Z,0.70
2019-01-11T18:05:26.805Z,0.70
2019-01-11T18:07:59.445Z,0.70
2019-01-11T18:10:30.522Z,0.80
2019-01-11T18:13:02.618Z,0.80
2019-01-11T18:15:33.655Z,0.70
2019-01-11T18:18:05.018Z,0.70
2019-01-11T18:20:36.146Z,0.80
2019-01-11T18:23:07.934Z,0.70
2019-01-11T18:25:38.918Z,0.70
2019-01-11T18:28:10.076Z,0.80
2019-01-11T18:30:41.135Z,0.70
2019-01-11T18:33:12.173Z,0.70
2019-01-11T18:35:43.094Z,0.80
2019-01-11T18:38:14.367Z,0.70
2019-01-11T18:40:45.491Z,0.70
2019-01-11T18:43:16.862Z,0.80
2019-01-11T18:45:47.787Z,0.80
2019-01-11T18:48:18.743Z,0.70
2019-01-11T18:50:49.752Z,0.70
2019-01-11T18:53:22.682Z,0.70
2019-01-11T18:55:53.782Z,0.60
2019-01-11T18:58:24.842Z,0.70
2019-01-11T19:00:55.862Z,0.60
2019-01-11T19:03:27.017Z,0.60
2019-01-11T19:05:58.045Z,0.70
2019-01-11T19:08:29.241Z,0.70
2019-01-11T19:11:02.158Z,0.70
2019-01-11T19:13:33.162Z,0.60
2019-01-11T19:16:04.158Z,0.70
2019-01-11T19:18:35.142Z,0.70
2019-01-11T19:21:08.597Z,0.70
2019-01-11T19:23:40.265Z,0.70
2019-01-11T19:26:11.073Z,0.70
2019-01-11T19:28:43.087Z,0.70
2019-01-11T19:31:14.191Z,0.80
2019-01-11T19:33:45.194Z,0.70
2019-01-11T19:36:16.161Z,0.70
2019-01-11T19:38:47.143Z,0.80
2019-01-11T19:41:18.054Z,0.80
2019-01-11T19:43:49.038Z,0.80
2019-01-11T19:46:20.129Z,0.80
2019-01-11T19:48:51.412Z,0.80
2019-01-11T19:51:22.324Z,0.70
2019-01-11T19:53:54.196Z,0.60
2019-01-11T19:56:25.120Z,0.70
2019-01-11T19:58:56.218Z,0.70
2019-01-11T20:01:27.380Z,0.80
2019-01-11T20:03:58.462Z,0.90
2019-01-11T20:06:29.569Z,0.80
2019-01-11T20:09:00.697Z,0.70
2019-01-11T20:11:33.195Z,0.80
2019-01-11T20:14:04.193Z,0.80
2019-01-11T20:16:35.185Z,0.80
2019-01-11T20:19:06.450Z,0.80
2019-01-11T20:21:38.394Z,0.80
2019-01-11T20:24:10.267Z,0.70
2019-01-11T20:26:42.110Z,0.80
2019-01-11T20:29:13.806Z,0.80
2019-01-11T20:31:44.810Z,0.80
2019-01-11T20:34:16.817Z,0.70
2019-01-11T20:36:56.926Z,0.70
2019-01-11T20:39:28.208Z,0.80
2019-01-11T20:41:59.314Z,0.70
2019-01-11T20:44:30.770Z,0.70
2019-01-11T20:47:01.697Z,0.80
2019-01-11T20:49:32.569Z,0.80
2019-01-11T20:52:03.693Z,0.80
2019-01-11T20:54:34.846Z,0.80
2019-01-11T20:57:06.060Z,0.80
2019-01-11T20:59:37.138Z,0.80
2019-01-11T21:02:08.158Z,0.90
2019-01-11T21:04:39.232Z,0.80
2019-01-11T21:07:10.126Z,0.70
2019-01-11T21:09:41.018Z,0.70
2019-01-11T21:12:11.998Z,0.60
2019-01-11T21:14:43.074Z,0.70
2019-01-11T21:17:14.099Z,0.70
2019-01-11T21:19:45.086Z,0.70
2019-01-11T21:22:16.270Z,0.80
2019-01-11T21:24:47.366Z,0.70
2019-01-11T21:27:18.470Z,0.80
2019-01-11T21:29:49.347Z,0.70
2019-01-11T21:32:20.226Z,0.80
2019-01-11T21:34:51.224Z,0.80
2019-01-11T21:37:22.327Z,0.80
2019-01-11T21:39:53.485Z,0.80
2019-01-11T21:42:26.135Z,0.80
2019-01-11T21:44:57.093Z,0.80
2019-01-11T21:47:27.918Z,0.80
2019-01-11T21:49:58.906Z,0.80
2019-01-11T21:52:29.927Z,0.80
2019-01-11T21:55:02.519Z,0.80
2019-01-11T21:57:33.518Z,0.80
2019-01-11T22:00:06.819Z,0.80
2019-01-11T22:02:37.859Z,0.90
2019-01-11T22:05:09.022Z,0.80
2019-01-11T22:07:40.138Z,0.90
2019-01-11T22:10:12.842Z,0.90
2019-01-11T22:12:43.967Z,0.90
2019-01-11T22:15:16.266Z,0.80
2019-01-11T22:17:47.197Z,0.90
2019-01-11T22:20:18.476Z,0.90
2019-01-11T22:22:49.451Z,0.90
2019-01-11T22:25:20.340Z,0.90
2019-01-11T22:27:51.438Z,0.80
2019-01-11T22:30:29.952Z,0.90
2019-01-11T22:32:55.974Z,0.90
2019-01-11T22:35:27.034Z,0.90
2019-01-11T22:37:58.217Z,0.90
2019-01-11T22:40:29.442Z,0.90
2019-01-11T22:43:00.962Z,0.90
2019-01-11T22:45:31.940Z,1.00
2019-01-11T22:48:02.840Z,1.00
2019-01-11T22:50:33.901Z,1.00
2019-01-11T22:53:05.291Z,1.00
2019-01-11T22:55:36.339Z,1.00
2019-01-11T22:58:08.891Z,1.00
2019-01-11T23:01:07.690Z,1.00
2019-01-11T23:03:42.149Z,1.00
2019-01-11T23:06:26.122Z,1.00
2019-01-11T23:08:57.246Z,1.00
2019-01-11T23:12:13.487Z,1.00
2019-01-11T23:14:44.493Z,1.00
2019-01-11T23:17:33.211Z,1.00
2019-01-11T23:20:04.386Z,1.00
2019-01-11T23:22:35.369Z,1.00
2019-01-11T23:25:06.666Z,1.00
2019-01-11T23:27:37.934Z,1.00
2019-01-11T23:30:12.546Z,1.00
2019-01-11T23:32:43.791Z,1.10
2019-01-11T23:35:14.835Z,1.00
2019-01-11T23:37:45.707Z,1.00
2019-01-11T23:40:17.630Z,1.00
2019-01-11T23:42:48.670Z,1.00
2019-01-11T23:45:19.406Z,1.00
2019-01-11T23:47:50.381Z,1.00
2019-01-11T23:50:21.282Z,1.00
2019-01-11T23:52:52.451Z,1.10
2019-01-11T23:55:23.469Z,1.10
2019-01-11T23:57:54.342Z,1.10
